Latest Weather Observations for Goulburn Airport

IDN60901

Issued at 6:05 pm EST Thursday 21 August 2014 (issued every 10 minutes, with the page automatically refreshed every 10 minutes)

About weather observations | Map of Canberra area stations | Latest observations for Canberra area | Other Formats
Station Details ID: 070330 Name: GOULBURN AIRPORT AWS Lat: -34.81 Lon: 149.73 Height: 640.0 m
Data from the previous 72 hours. | See also: Recent months at Goulburn Airport
Date/Time
EST
Tmp

°C
App
Tmp
°C
Dew
Point
°C
Rel
Hum
%
Delta-T

°C
Wind Press
QNH
hPa
Press
MSL
hPa
Rain
since
9 am
mm
Dir
 
Spd
km/h
Gust
km/h
Spd
kts
Gust
kts
21/06:00pm 7.1 3.9 4.9 86 1.0 SE 11 13 6 7 1029.3 1030.2 1.0
21/05:30pm 8.0 6.7 6.1 88 0.9 E 2 6 1 3 1028.9 - 1.0
21/05:00pm 8.8 6.9 6.8 87 1.0 E 6 7 3 4 1028.6 - 1.0
21/04:30pm 8.7 5.0 6.5 86 1.1 ESE 15 19 8 10 1028.5 - 1.0
21/04:00pm 9.3 5.1 7.3 87 1.0 ESE 19 28 10 15 1028.1 - 1.0
21/03:30pm 10.5 7.2 7.9 84 1.3 SE 15 20 8 11 1027.8 - 1.0
21/03:09pm 9.6 5.7 7.2 85 1.2 ESE 17 22 9 12 1027.8 - 1.0
21/03:00pm 10.1 6.6 8.7 91 0.7 ESE 17 22 9 12 1027.9 1028.8 1.0
21/02:30pm 9.3 5.3 8.1 92 0.6 ESE 19 24 10 13 1028.0 - 0.8
21/02:26pm 9.2 4.9 7.8 91 0.7 ESE 20 30 11 16 1028.0 - 0.8
21/02:00pm 11.2 7.9 8.2 82 1.5 E 15 20 8 11 1027.9 - 0.2
21/01:32pm 9.3 5.1 7.6 89 0.8 ESE 19 28 10 15 1028.3 - 0.2
21/01:30pm 9.2 4.8 7.5 89 0.8 ESE 20 28 11 15 1028.3 - 0.2
21/01:17pm 9.9 5.7 7.5 85 1.2 SSE 19 24 10 13 1028.3 - 0.0
21/01:00pm 9.9 6.7 8.3 90 0.8 SE 15 20 8 11 1028.6 - 0.0
21/12:30pm 10.7 6.1 5.7 71 2.4 SE 19 26 10 14 1028.8 - 0.0
21/12:01pm 10.9 6.3 5.7 70 2.5 SE 19 28 10 15 1029.1 - 0.0
21/12:00pm 10.9 6.4 6.1 72 2.3 SE 19 28 10 15 1029.1 1030.0 0.0
21/11:30am 10.3 5.2 5.9 74 2.1 SSE 22 28 12 15 1029.5 - 0.0
21/11:00am 9.9 4.7 5.7 75 2.0 SE 22 30 12 16 1029.6 - 0.0
21/10:43am 10.9 6.3 6.5 74 2.1 SE 20 28 11 15 1029.6 - 0.0
21/10:35am 10.9 6.3 6.3 73 2.2 SE 20 26 11 14 1029.6 - 0.0
21/10:30am 10.5 5.9 6.6 77 1.9 SE 20 28 11 15 1029.7 - 0.0
21/10:00am 8.8 3.3 6.1 83 1.3 SSE 24 28 13 15 1029.8 - 0.0
21/09:49am 8.3 4.1 5.6 83 1.3 SSE 17 24 9 13 1029.8 - 0.0
21/09:30am 7.6 3.4 5.9 89 0.8 SSE 17 22 9 12 1029.7 - 0.0
21/09:00am 5.7 4.6 5.3 97 0.2 CALM 0 6 0 3 1029.7 1030.6 0.0
21/08:59am 5.8 4.8 5.4 97 0.2 CALM 0 6 0 3 1029.8 - 0.0
21/08:37am 4.7 2.3 4.3 97 0.2 N 6 7 3 4 1029.8 - 0.0
21/08:30am 4.5 2.1 4.1 97 0.2 NNE 6 7 3 4 1029.8 - 0.0
21/08:00am 3.8 1.3 3.5 98 0.1 N 6 7 3 4 1029.4 - 0.0
21/07:30am 2.9 0.2 2.6 98 0.1 N 6 7 3 4 1029.1 - 0.0
21/07:00am 2.5 0.1 2.2 98 0.1 N 4 7 2 4 1028.9 - 0.0
21/06:30am 1.7 -1.2 1.4 98 0.1 N 6 7 3 4 1028.7 - 0.0
21/06:00am 1.4 -0.4 1.1 98 0.1 NNW 0 0 0 0 1028.3 1029.1 0.0
21/05:30am 0.8 -1.1 0.5 98 0.1 CALM 0 0 0 0 1028.1 - 0.0
21/05:00am 0.8 -1.1 0.5 98 0.1 CALM 0 0 0 0 1027.9 - 0.0
21/04:42am 0.4 -1.6 0.0 97 0.2 CALM 0 0 0 0 1027.8 - 0.0
21/04:30am 0.3 -1.7 -0.1 97 0.2 CALM 0 0 0 0 1027.7 - 0.0
21/04:26am 0.3 -1.7 -0.1 97 0.2 CALM 0 0 0 0 1027.8 - 0.0
21/04:23am 0.5 -1.5 0.1 97 0.2 CALM 0 0 0 0 1027.8 - 0.0
21/04:08am 0.3 -1.7 -0.1 97 0.2 CALM 0 6 0 3 1027.7 - 0.0
21/04:07am 0.2 -1.8 -0.2 97 0.1 CALM 0 7 0 4 1027.7 - 0.0
21/04:00am 0.1 -2.3 -0.3 97 0.2 SE 2 7 1 4 1027.7 - 0.0
21/03:30am -0.9 -3.1 -1.5 96 0.2 CALM 0 4 0 2 1027.7 - 0.0
21/03:00am -0.9 -3.1 -1.5 96 0.2 CALM 0 0 0 0 1027.6 1028.5 0.0
21/02:30am 0.0 -2.1 -0.6 96 0.2 CALM 0 0 0 0 1027.6 - 0.0
21/02:00am -0.2 -2.3 -0.9 95 0.2 CALM 0 0 0 0 1027.7 - 0.0
21/01:52am -0.3 -2.4 -1.0 95 0.2 SE 0 0 0 0 1027.7 - 0.0
21/01:30am 0.6 -1.4 -0.1 95 0.3 CALM 0 0 0 0 1027.8 - 0.0
21/01:00am 1.6 -0.6 1.0 96 0.2 SSE 2 6 1 3 1027.8 - 0.0
21/12:30am 1.7 -1.3 1.1 96 0.2 S 6 6 3 3 1027.7 - 0.0
21/12:00am 2.4 -0.4 1.8 96 0.2 S 6 7 3 4 1027.6 1028.5 0.0
 
Date/Time
EST
Tmp

°C
App
Tmp
°C
Dew
Point
°C
Rel
Hum
%
Delta-T

°C
Wind Press
QNH
hPa
Press
MSL
hPa
Rain
since
9 am
mm
Dir
 
Spd
km/h
Gust
km/h
Spd
kts
Gust
kts
20/11:30pm 3.4 0.5 2.8 96 0.3 SSW 7 9 4 5 1027.8 - 0.0
20/11:00pm 2.4 -0.6 1.8 96 0.2 SW 7 9 4 5 1027.8 - 0.0
20/10:30pm 1.2 -2.1 0.2 93 0.4 SW 7 9 4 5 1027.8 - 0.0
20/10:00pm 1.9 -1.1 0.6 91 0.5 SSW 6 6 3 3 1027.8 - 0.0
20/09:30pm 2.9 0.0 1.6 91 0.5 S 6 7 3 4 1027.7 - 0.0
20/09:00pm 3.2 0.1 1.6 89 0.6 S 7 9 4 5 1027.6 1028.5 0.0
20/08:30pm 4.9 1.7 2.8 86 0.9 SE 9 13 5 7 1027.3 - 0.0
20/08:00pm 5.1 1.8 2.6 84 1.1 ESE 9 15 5 8 1027.0 - 0.0
20/07:30pm 6.4 2.5 3.4 81 1.3 E 13 17 7 9 1026.7 - 0.0
20/07:00pm 6.3 3.1 2.8 78 1.5 E 9 11 5 6 1026.1 - 0.0
20/06:30pm 6.4 4.8 2.5 76 1.7 CALM 0 6 0 3 1025.7 - 0.0
20/06:00pm 7.9 4.2 2.6 69 2.3 E 11 15 6 8 1025.3 1026.1 0.0
20/05:30pm 9.4 6.0 1.8 59 3.3 E 9 11 5 6 1025.0 - 0.0
20/05:00pm 11.5 8.5 2.3 53 4.1 E 7 11 4 6 1024.6 - 0.0
20/04:30pm 12.3 8.6 2.2 50 4.5 SE 11 15 6 8 1024.4 - 0.0
20/04:00pm 12.6 9.1 1.3 46 5.0 SSE 9 17 5 9 1024.3 - 0.0
20/03:30pm 12.7 8.5 1.7 47 4.9 S 13 17 7 9 1024.1 - 0.0
20/03:00pm 12.8 9.8 1.8 47 4.9 SE 7 11 4 6 1024.0 1024.8 0.0
20/02:30pm 12.5 9.3 0.9 45 5.1 S 7 13 4 7 1023.9 - 0.0
20/02:00pm 12.6 8.4 1.6 47 4.9 SSW 13 19 7 10 1024.0 - 0.0
20/01:30pm 12.3 8.1 1.9 49 4.6 S 13 17 7 9 1024.0 - 0.0
20/01:00pm 12.2 8.9 2.6 52 4.3 S 9 17 5 9 1024.3 - 0.0
20/12:30pm 11.8 8.5 2.5 53 4.2 ESE 9 19 5 10 1024.6 - 0.0
20/12:00pm 11.4 8.1 2.2 53 4.1 ESE 9 17 5 9 1025.0 1025.8 0.0
20/11:30am 11.1 7.4 2.2 54 4.0 ESE 11 15 6 8 1025.3 - 0.0
20/11:00am 10.8 7.9 2.6 57 3.7 SE 7 15 4 8 1025.4 - 0.0
20/10:30am 10.3 6.6 2.2 57 3.6 SSE 11 17 6 9 1025.6 - 0.0
20/10:00am 9.5 5.3 1.7 58 3.4 S 13 20 7 11 1025.5 - 0.0
20/09:30am 9.0 5.4 2.8 65 2.7 SSW 11 17 6 9 1025.5 - 0.0
20/09:00am 7.8 3.9 3.3 73 2.0 SSW 13 17 7 9 1025.4 1026.2 0.0
20/08:30am 6.3 3.1 3.1 80 1.4 SW 9 11 5 6 1025.2 - 0.0
20/08:00am 3.8 2.3 2.8 93 0.4 CALM 0 0 0 0 1025.1 - 0.0
20/07:30am 2.6 -0.2 2.0 96 0.2 SE 6 9 3 5 1024.8 - 0.0
20/07:00am 0.9 -1.1 0.0 94 0.3 CALM 0 0 0 0 1024.6 - 0.0
20/06:30am 0.6 -2.6 -0.7 91 0.5 W 6 7 3 4 1024.2 - 0.0
20/06:00am 2.6 -0.4 1.1 90 0.6 SE 6 7 3 4 1023.8 1024.6 0.0
20/05:30am 3.6 1.5 2.0 89 0.7 E 2 6 1 3 1023.6 - 0.0
20/05:00am 4.2 1.5 2.9 91 0.6 S 6 9 3 5 1023.5 - 0.0
20/04:30am 3.9 1.6 2.6 91 0.5 W 4 6 2 3 1023.1 - 0.0
20/04:00am 3.7 0.9 2.2 90 0.6 N 6 7 3 4 1022.9 - 0.0
20/03:30am 5.0 2.2 3.3 89 0.7 S 7 7 4 4 1022.8 - 0.0
20/03:00am 4.5 2.6 3.0 90 0.6 ESE 2 6 1 3 1022.8 1023.6 0.0
20/02:30am 4.8 2.0 3.1 89 0.7 WSW 7 9 4 5 1022.9 - 0.0
20/02:00am 5.1 3.0 3.8 91 0.6 NW 4 7 2 4 1023.1 - 0.0
20/01:30am 5.1 1.9 3.3 88 0.8 SW 9 9 5 5 1023.1 - 0.0
20/01:00am 5.3 2.2 3.5 88 0.8 S 9 13 5 7 1023.1 - 0.0
20/12:30am 4.8 2.2 4.4 97 0.2 S 7 11 4 6 1023.3 - 0.0
20/12:00am 3.6 2.1 3.2 97 0.2 CALM 0 0 0 0 1023.5 1024.3 0.0
 
Date/Time
EST
Tmp

°C
App
Tmp
°C
Dew
Point
°C
Rel
Hum
%
Delta-T

°C
Wind Press
QNH
hPa
Press
MSL
hPa
Rain
since
9 am
mm
Dir
 
Spd
km/h
Gust
km/h
Spd
kts
Gust
kts
19/11:30pm 3.0 1.4 2.4 96 0.2 CALM 0 0 0 0 1023.4 - 0.0
19/11:00pm 3.0 1.0 2.4 96 0.2 SE 2 6 1 3 1023.3 - 0.0
19/10:30pm 2.7 -1.0 2.1 96 0.2 S 11 13 6 7 1023.0 - 0.0
19/10:00pm 2.3 -0.8 1.6 95 0.3 S 7 9 4 5 1023.0 - 0.0
19/09:30pm 2.7 0.6 1.8 94 0.4 SSW 2 7 1 4 1022.7 - 0.0
19/09:00pm 2.8 -1.3 2.1 95 0.3 SSW 13 15 7 8 1022.5 1023.3 0.0
19/08:30pm 2.2 -1.4 0.7 90 0.6 S 9 11 5 6 1022.5 - 0.0
19/08:00pm 3.3 -0.2 1.5 88 0.7 S 9 11 5 6 1022.3 - 0.0
19/07:30pm 4.6 1.4 2.9 89 0.7 SSW 9 11 5 6 1021.9 - 0.0
19/07:00pm 4.7 2.0 2.9 88 0.8 S 6 9 3 5 1021.5 - 0.0
19/06:30pm 5.6 2.3 2.6 81 1.3 SSE 9 11 5 6 1021.0 - 0.0
19/06:00pm 7.1 3.2 3.5 78 1.6 SE 13 15 7 8 1020.6 1021.3 0.0
19/05:30pm 8.9 4.4 4.1 72 2.2 SSE 17 19 9 10 1020.1 - 0.0
19/05:00pm 10.6 5.7 5.2 69 2.6 SE 20 28 11 15 1019.5 - 0.0
19/04:30pm 11.7 5.8 4.0 59 3.6 SSE 24 35 13 19 1019.1 - 0.0
19/04:00pm 12.0 8.3 6.5 69 2.7 SE 15 20 8 11 1019.1 - 0.0
19/03:30pm 11.1 3.7 4.8 65 3.0 S 33 41 18 22 1019.0 - 0.0
19/03:00pm 12.5 7.1 4.5 58 3.8 S 22 30 12 16 1018.6 1019.3 0.0
19/02:30pm 11.6 5.4 4.3 61 3.4 S 26 35 14 19 1018.5 - 0.0
19/02:00pm 11.8 6.2 5.4 65 3.1 SSE 24 39 13 21 1018.3 - 0.0
19/01:30pm 11.5 4.8 7.2 75 2.1 S 32 41 17 22 1018.4 - 0.0
19/01:00pm 10.6 3.6 5.8 72 2.3 S 32 39 17 21 1018.4 - 0.0
19/12:30pm 11.6 5.5 6.5 71 2.5 S 28 37 15 20 1018.4 - 0.0
19/12:00pm 10.6 3.6 5.8 72 2.3 S 32 39 17 21 1018.6 1019.3 0.0
19/11:30am 10.8 3.4 6.6 75 2.1 S 35 50 19 27 1018.8 - 0.0
19/11:24am 10.5 3.6 6.6 77 1.9 SSE 32 50 17 27 1018.8 - 0.0
19/11:00am 10.8 5.5 6.6 75 2.1 S 24 30 13 16 1018.7 - 0.0
19/10:30am 10.4 5.2 7.1 80 1.6 S 24 35 13 19 1018.8 - 0.0
19/10:00am 9.3 4.4 7.1 86 1.1 S 22 35 12 19 1018.7 - 0.0
19/09:30am 9.4 4.4 6.5 82 1.4 S 22 30 12 16 1018.6 - 0.0
19/09:00am 8.9 4.3 6.3 84 1.2 S 20 24 11 13 1018.6 1019.3 3.0
19/08:30am 8.8 4.3 6.9 88 0.9 S 20 26 11 14 1018.3 - 3.0
19/08:00am 7.9 3.4 6.8 93 0.5 S 20 24 11 13 1017.8 - 3.0
19/07:30am 7.5 4.2 6.6 94 0.4 SSW 13 15 7 8 1017.4 - 3.0
19/07:26am 7.4 4.2 6.7 95 0.3 SSW 13 15 7 8 1017.4 - 3.0
19/07:00am 6.8 3.4 5.9 94 0.4 SSW 13 19 7 10 1017.2 - 3.0
19/06:30am 7.2 3.9 6.5 95 0.3 SW 13 19 7 10 1016.9 - 2.8
19/06:18am 6.9 3.5 6.0 94 0.4 SW 13 15 7 8 1016.8 - 2.8
19/06:03am 6.7 2.9 5.8 94 0.4 WSW 15 17 8 9 1016.5 - 2.8
19/06:00am 6.6 2.8 5.7 94 0.4 WSW 15 17 8 9 1016.4 1017.1 2.8
19/05:46am 6.2 2.3 5.3 94 0.4 SW 15 17 8 9 1016.3 - 2.8
19/05:30am 6.5 2.7 5.6 94 0.4 SSW 15 17 8 9 1016.1 - 2.8
19/05:00am 6.2 2.3 5.3 94 0.4 SSW 15 19 8 10 1015.8 - 2.8
19/04:30am 6.5 2.3 5.6 94 0.4 S 17 19 9 10 1015.5 - 2.8
19/04:00am 7.2 3.5 6.1 93 0.5 SSW 15 19 8 10 1015.3 - 2.8
19/03:32am 7.5 2.9 6.6 94 0.4 S 20 28 11 15 1015.3 - 2.8
19/03:30am 7.4 2.8 6.5 94 0.4 S 20 28 11 15 1015.3 - 2.8
19/03:00am 7.7 3.2 6.8 94 0.4 S 20 26 11 14 1015.3 1015.9 2.8
19/02:50am 7.6 3.2 6.7 94 0.4 S 19 24 10 13 1015.3 - 2.6
19/02:49am 7.6 3.2 6.7 94 0.4 S 19 22 10 12 1015.3 - 2.6
19/02:30am 7.6 3.2 6.7 94 0.4 S 19 22 10 12 1015.3 - 2.6
19/02:00am 7.6 3.2 6.4 92 0.6 S 19 24 10 13 1015.2 - 2.0
19/01:39am 7.9 2.8 5.9 87 0.9 S 22 30 12 16 1015.1 - 2.0
19/01:30am 7.9 2.8 5.9 87 0.9 S 22 32 12 17 1015.1 - 2.0
19/01:00am 7.7 1.4 5.7 87 0.9 S 28 39 15 21 1014.8 - 2.0
19/12:30am 7.9 0.9 5.9 87 0.9 S 32 39 17 21 1014.7 - 2.0
19/12:22am 7.9 0.7 6.0 88 0.9 S 33 44 18 24 1014.7 - 2.0
19/12:12am 7.9 0.7 6.0 88 0.9 S 33 41 18 22 1014.7 - 2.0
19/12:00am 7.8 1.2 6.1 89 0.8 S 30 41 16 22 1014.6 1015.3 2.0
 
Date/Time
EST
Tmp

°C
App
Tmp
°C
Dew
Point
°C
Rel
Hum
%
Delta-T

°C
Wind Press
QNH
hPa
Press
MSL
hPa
Rain
since
9 am
mm
Dir
 
Spd
km/h
Gust
km/h
Spd
kts
Gust
kts
18/11:30pm 7.5 0.8 5.8 89 0.8 S 30 39 16 21 1014.3 - 2.0
18/11:00pm 7.6 1.7 5.6 87 0.9 S 26 37 14 20 1014.3 - 2.0
18/10:30pm 7.6 0.5 5.6 87 0.9 S 32 39 17 21 1014.2 - 2.0
18/10:00pm 7.6 1.3 5.9 89 0.8 S 28 37 15 20 1014.1 - 2.0
18/09:55pm 7.6 1.0 5.9 89 0.8 S 30 41 16 22 1014.1 - 2.0
18/09:38pm 7.8 0.8 6.1 89 0.8 S 32 44 17 24 1014.1 - 2.0
18/09:35pm 7.7 0.7 6.2 90 0.7 S 32 39 17 21 1014.0 - 2.0
18/09:30pm 7.8 0.6 6.1 89 0.8 S 33 41 18 22 1013.9 - 2.0
18/09:00pm 7.9 1.0 6.4 90 0.7 S 32 41 17 22 1013.7 1014.3 2.0
18/08:30pm 7.9 1.0 6.5 91 0.7 S 32 41 17 22 1013.6 - 2.0
18/08:01pm 7.8 1.3 6.6 92 0.6 SSW 30 37 16 20 1013.4 - 2.0
18/08:00pm 7.8 1.3 6.6 92 0.6 SSW 30 37 16 20 1013.4 - 2.0
18/07:32pm 7.8 0.7 6.6 92 0.6 SSW 33 41 18 22 1013.0 - 2.0
18/07:30pm 7.8 0.9 6.6 92 0.6 SSW 32 41 17 22 1013.0 - 2.0
18/07:16pm 7.9 1.4 6.7 92 0.6 SSW 30 39 16 21 1012.9 - 2.0
18/07:00pm 7.9 1.1 6.7 92 0.6 SSW 32 37 17 20 1012.8 - 2.0
18/06:30pm 7.9 1.1 6.8 93 0.5 S 32 44 17 24 1012.6 - 1.8

Latest Capital City Observations: Canberra | Sydney | Melbourne | Brisbane | Adelaide | Perth | Hobart | Darwin

Other Formats:

Comma delimited format used in spreadsheet applications
http://www.bom.gov.au/fwo/IDN60903/IDN60903.95716.axf

JavaScript Object Notation format (JSON) in row-major order
http://www.bom.gov.au/fwo/IDN60903/IDN60903.95716.json